sensor_id;sensor_type;location;lat;lon;timestamp;P1;durP1;ratioP1;P2;durP2;ratioP2
4214;SDS011;2121;48.062;7.850;2022-10-31T00:00:51;7.90;;;4.03;;
4214;SDS011;2121;48.062;7.850;2022-10-31T00:03:17;10.90;;;5.40;;
4214;SDS011;2121;48.062;7.850;2022-10-31T00:05:45;5.97;;;4.13;;
4214;SDS011;2121;48.062;7.850;2022-10-31T00:08:13;7.80;;;5.07;;
4214;SDS011;2121;48.062;7.850;2022-10-31T00:10:40;7.97;;;5.50;;
4214;SDS011;2121;48.062;7.850;2022-10-31T00:13:07;12.23;;;5.03;;
4214;SDS011;2121;48.062;7.850;2022-10-31T00:15:35;12.87;;;6.27;;
4214;SDS011;2121;48.062;7.850;2022-10-31T00:18:02;10.23;;;4.33;;
4214;SDS011;2121;48.062;7.850;2022-10-31T00:20:29;8.13;;;3.70;;
4214;SDS011;2121;48.062;7.850;2022-10-31T00:22:59;7.90;;;3.70;;
4214;SDS011;2121;48.062;7.850;2022-10-31T00:25:27;7.23;;;3.97;;
4214;SDS011;2121;48.062;7.850;2022-10-31T00:27:54;12.80;;;3.73;;
4214;SDS011;2121;48.062;7.850;2022-10-31T00:30:20;9.20;;;4.03;;
4214;SDS011;2121;48.062;7.850;2022-10-31T00:32:46;4.20;;;3.80;;
4214;SDS011;2121;48.062;7.850;2022-10-31T00:35:12;8.47;;;4.83;;
4214;SDS011;2121;48.062;7.850;2022-10-31T00:37:37;7.90;;;4.03;;
4214;SDS011;2121;48.062;7.850;2022-10-31T00:40:03;10.03;;;5.10;;
4214;SDS011;2121;48.062;7.850;2022-10-31T00:42:30;7.70;;;4.40;;
4214;SDS011;2121;48.062;7.850;2022-10-31T00:44:55;5.40;;;4.30;;
4214;SDS011;2121;48.062;7.850;2022-10-31T00:47:21;6.00;;;3.60;;
4214;SDS011;2121;48.062;7.850;2022-10-31T00:49:47;7.73;;;5.00;;
4214;SDS011;2121;48.062;7.850;2022-10-31T00:52:12;7.60;;;4.90;;
4214;SDS011;2121;48.062;7.850;2022-10-31T00:54:38;10.20;;;4.80;;
4214;SDS011;2121;48.062;7.850;2022-10-31T00:57:04;9.80;;;4.57;;
4214;SDS011;2121;48.062;7.850;2022-10-31T00:59:29;8.90;;;4.93;;
4214;SDS011;2121;48.062;7.850;2022-10-31T01:01:55;7.87;;;4.83;;
4214;SDS011;2121;48.062;7.850;2022-10-31T01:04:21;14.10;;;4.70;;
4214;SDS011;2121;48.062;7.850;2022-10-31T01:06:46;15.43;;;4.27;;
4214;SDS011;2121;48.062;7.850;2022-10-31T01:09:12;7.13;;;4.70;;
4214;SDS011;2121;48.062;7.850;2022-10-31T01:11:38;14.50;;;4.50;;
4214;SDS011;2121;48.062;7.850;2022-10-31T01:14:03;8.53;;;4.33;;
4214;SDS011;2121;48.062;7.850;2022-10-31T01:16:29;7.23;;;4.20;;
4214;SDS011;2121;48.062;7.850;2022-10-31T01:18:55;8.87;;;4.30;;
4214;SDS011;2121;48.062;7.850;2022-10-31T01:21:24;10.33;;;5.00;;
4214;SDS011;2121;48.062;7.850;2022-10-31T01:23:53;7.03;;;4.17;;
4214;SDS011;2121;48.062;7.850;2022-10-31T01:26:23;12.47;;;4.70;;
4214;SDS011;2121;48.062;7.850;2022-10-31T01:28:53;4.80;;;4.37;;
4214;SDS011;2121;48.062;7.850;2022-10-31T01:31:22;8.97;;;4.20;;
4214;SDS011;2121;48.062;7.850;2022-10-31T01:33:51;8.17;;;4.20;;
4214;SDS011;2121;48.062;7.850;2022-10-31T01:38:52;8.90;;;5.27;;
4214;SDS011;2121;48.062;7.850;2022-10-31T01:41:21;6.50;;;4.50;;
4214;SDS011;2121;48.062;7.850;2022-10-31T01:43:52;11.07;;;4.50;;
4214;SDS011;2121;48.062;7.850;2022-10-31T01:55:05;6.90;;;5.30;;
4214;SDS011;2121;48.062;7.850;2022-10-31T01:57:32;9.03;;;5.00;;
4214;SDS011;2121;48.062;7.850;2022-10-31T02:00:01;7.90;;;5.23;;
4214;SDS011;2121;48.062;7.850;2022-10-31T02:02:32;7.40;;;5.17;;
4214;SDS011;2121;48.062;7.850;2022-10-31T02:04:58;7.43;;;5.90;;
4214;SDS011;2121;48.062;7.850;2022-10-31T02:07:28;7.77;;;5.13;;
4214;SDS011;2121;48.062;7.850;2022-10-31T02:10:24;8.10;;;4.97;;
4214;SDS011;2121;48.062;7.850;2022-10-31T02:12:51;10.47;;;4.47;;
4214;SDS011;2121;48.062;7.850;2022-10-31T02:15:20;7.30;;;4.93;;
4214;SDS011;2121;48.062;7.850;2022-10-31T02:17:46;10.07;;;4.33;;
4214;SDS011;2121;48.062;7.850;2022-10-31T02:20:14;9.20;;;5.20;;
4214;SDS011;2121;48.062;7.850;2022-10-31T02:28:31;8.90;;;5.60;;
4214;SDS011;2121;48.062;7.850;2022-10-31T02:36:43;7.00;;;4.70;;
4214;SDS011;2121;48.062;7.850;2022-10-31T02:39:21;8.83;;;4.80;;
4214;SDS011;2121;48.062;7.850;2022-10-31T02:41:54;10.00;;;5.37;;
4214;SDS011;2121;48.062;7.850;2022-10-31T02:44:44;8.03;;;5.00;;
4214;SDS011;2121;48.062;7.850;2022-10-31T02:47:16;12.30;;;5.43;;
4214;SDS011;2121;48.062;7.850;2022-10-31T02:52:50;6.17;;;4.10;;
4214;SDS011;2121;48.062;7.850;2022-10-31T02:57:51;6.80;;;4.70;;
4214;SDS011;2121;48.062;7.850;2022-10-31T03:00:43;12.00;;;5.30;;
4214;SDS011;2121;48.062;7.850;2022-10-31T03:07:07;11.13;;;4.87;;
4214;SDS011;2121;48.062;7.850;2022-10-31T03:16:18;6.13;;;4.50;;
4214;SDS011;2121;48.062;7.850;2022-10-31T03:19:31;11.67;;;5.20;;
4214;SDS011;2121;48.062;7.850;2022-10-31T03:24:56;11.57;;;5.60;;
4214;SDS011;2121;48.062;7.850;2022-10-31T03:27:25;9.03;;;5.40;;
4214;SDS011;2121;48.062;7.850;2022-10-31T03:29:56;7.40;;;5.10;;
4214;SDS011;2121;48.062;7.850;2022-10-31T03:32:32;6.93;;;4.33;;
4214;SDS011;2121;48.062;7.850;2022-10-31T03:35:19;6.90;;;5.03;;
4214;SDS011;2121;48.062;7.850;2022-10-31T03:37:48;6.43;;;3.83;;
4214;SDS011;2121;48.062;7.850;2022-10-31T03:40:16;8.90;;;4.40;;
4214;SDS011;2121;48.062;7.850;2022-10-31T03:42:54;9.80;;;5.10;;
4214;SDS011;2121;48.062;7.850;2022-10-31T03:45:27;6.37;;;4.30;;
4214;SDS011;2121;48.062;7.850;2022-10-31T03:47:56;4.63;;;3.57;;
4214;SDS011;2121;48.062;7.850;2022-10-31T03:50:24;12.70;;;4.47;;
4214;SDS011;2121;48.062;7.850;2022-10-31T03:53:40;11.93;;;4.27;;
4214;SDS011;2121;48.062;7.850;2022-10-31T03:56:13;4.70;;;3.80;;
4214;SDS011;2121;48.062;7.850;2022-10-31T03:58:55;7.13;;;4.03;;
4214;SDS011;2121;48.062;7.850;2022-10-31T04:01:47;7.23;;;3.97;;
4214;SDS011;2121;48.062;7.850;2022-10-31T04:04:17;5.13;;;4.20;;
4214;SDS011;2121;48.062;7.850;2022-10-31T04:06:44;12.83;;;4.10;;
4214;SDS011;2121;48.062;7.850;2022-10-31T04:09:12;4.77;;;3.50;;
4214;SDS011;2121;48.062;7.850;2022-10-31T04:11:47;12.37;;;4.33;;
4214;SDS011;2121;48.062;7.850;2022-10-31T04:14:17;6.30;;;3.93;;
4214;SDS011;2121;48.062;7.850;2022-10-31T04:16:43;7.00;;;4.23;;
4214;SDS011;2121;48.062;7.850;2022-10-31T04:19:10;7.77;;;3.60;;
4214;SDS011;2121;48.062;7.850;2022-10-31T04:21:36;5.53;;;4.23;;
4214;SDS011;2121;48.062;7.850;2022-10-31T04:24:02;4.40;;;3.50;;
4214;SDS011;2121;48.062;7.850;2022-10-31T04:26:28;9.27;;;4.73;;
4214;SDS011;2121;48.062;7.850;2022-10-31T04:28:54;7.13;;;4.70;;
4214;SDS011;2121;48.062;7.850;2022-10-31T04:31:20;15.23;;;4.97;;
4214;SDS011;2121;48.062;7.850;2022-10-31T04:33:45;5.27;;;3.70;;
4214;SDS011;2121;48.062;7.850;2022-10-31T04:36:11;9.03;;;4.67;;
4214;SDS011;2121;48.062;7.850;2022-10-31T04:38:37;8.33;;;5.70;;
4214;SDS011;2121;48.062;7.850;2022-10-31T04:41:03;4.70;;;3.50;;
4214;SDS011;2121;48.062;7.850;2022-10-31T04:43:28;5.73;;;4.00;;
4214;SDS011;2121;48.062;7.850;2022-10-31T04:45:54;4.10;;;3.70;;
4214;SDS011;2121;48.062;7.850;2022-10-31T04:48:20;9.47;;;4.50;;
4214;SDS011;2121;48.062;7.850;2022-10-31T04:50:45;6.90;;;4.30;;
4214;SDS011;2121;48.062;7.850;2022-10-31T04:53:11;10.87;;;5.00;;
4214;SDS011;2121;48.062;7.850;2022-10-31T04:55:37;13.83;;;5.67;;
4214;SDS011;2121;48.062;7.850;2022-10-31T04:58:02;8.00;;;4.60;;
4214;SDS011;2121;48.062;7.850;2022-10-31T05:00:28;7.33;;;5.30;;
4214;SDS011;2121;48.062;7.850;2022-10-31T05:02:56;9.30;;;5.37;;
4214;SDS011;2121;48.062;7.850;2022-10-31T05:05:24;3.97;;;3.57;;
4214;SDS011;2121;48.062;7.850;2022-10-31T05:07:53;7.67;;;4.93;;
4214;SDS011;2121;48.062;7.850;2022-10-31T05:10:23;4.70;;;4.30;;
4214;SDS011;2121;48.062;7.850;2022-10-31T05:12:53;6.80;;;4.07;;
4214;SDS011;2121;48.062;7.850;2022-10-31T05:15:25;4.93;;;3.83;;
4214;SDS011;2121;48.062;7.850;2022-10-31T05:17:52;8.57;;;3.77;;
4214;SDS011;2121;48.062;7.850;2022-10-31T05:20:20;6.63;;;3.37;;
4214;SDS011;2121;48.062;7.850;2022-10-31T05:22:50;11.63;;;4.23;;
4214;SDS011;2121;48.062;7.850;2022-10-31T05:25:18;6.23;;;4.20;;
4214;SDS011;2121;48.062;7.850;2022-10-31T05:27:47;8.00;;;4.20;;
4214;SDS011;2121;48.062;7.850;2022-10-31T05:30:16;6.50;;;4.63;;
4214;SDS011;2121;48.062;7.850;2022-10-31T05:32:48;11.10;;;4.17;;
4214;SDS011;2121;48.062;7.850;2022-10-31T05:35:17;6.50;;;4.33;;
4214;SDS011;2121;48.062;7.850;2022-10-31T05:37:49;7.77;;;3.83;;
4214;SDS011;2121;48.062;7.850;2022-10-31T05:40:15;11.03;;;4.10;;
4214;SDS011;2121;48.062;7.850;2022-10-31T05:42:43;6.27;;;3.60;;
4214;SDS011;2121;48.062;7.850;2022-10-31T05:45:13;4.93;;;3.80;;
4214;SDS011;2121;48.062;7.850;2022-10-31T05:47:41;9.57;;;5.00;;
4214;SDS011;2121;48.062;7.850;2022-10-31T05:50:08;6.53;;;3.63;;
4214;SDS011;2121;48.062;7.850;2022-10-31T05:52:34;4.50;;;3.97;;
4214;SDS011;2121;48.062;7.850;2022-10-31T05:55:01;10.50;;;3.70;;
4214;SDS011;2121;48.062;7.850;2022-10-31T05:57:27;9.20;;;4.23;;
4214;SDS011;2121;48.062;7.850;2022-10-31T05:59:58;8.47;;;3.77;;
4214;SDS011;2121;48.062;7.850;2022-10-31T06:02:24;6.10;;;3.83;;
4214;SDS011;2121;48.062;7.850;2022-10-31T06:04:51;5.90;;;4.13;;
4214;SDS011;2121;48.062;7.850;2022-10-31T06:07:17;7.47;;;4.60;;
4214;SDS011;2121;48.062;7.850;2022-10-31T06:09:43;9.03;;;4.20;;
4214;SDS011;2121;48.062;7.850;2022-10-31T06:12:09;9.97;;;4.23;;
4214;SDS011;2121;48.062;7.850;2022-10-31T06:14:34;6.50;;;4.03;;
4214;SDS011;2121;48.062;7.850;2022-10-31T06:17:00;6.53;;;4.13;;
4214;SDS011;2121;48.062;7.850;2022-10-31T06:19:26;4.87;;;4.30;;
4214;SDS011;2121;48.062;7.850;2022-10-31T06:21:51;7.83;;;4.13;;
4214;SDS011;2121;48.062;7.850;2022-10-31T06:24:17;6.53;;;4.77;;
4214;SDS011;2121;48.062;7.850;2022-10-31T06:26:43;15.27;;;8.50;;
4214;SDS011;2121;48.062;7.850;2022-10-31T06:29:08;19.80;;;8.97;;
4214;SDS011;2121;48.062;7.850;2022-10-31T06:31:34;19.83;;;10.27;;
4214;SDS011;2121;48.062;7.850;2022-10-31T06:34:00;20.60;;;8.00;;
4214;SDS011;2121;48.062;7.850;2022-10-31T06:36:25;10.63;;;6.60;;
4214;SDS011;2121;48.062;7.850;2022-10-31T06:38:51;9.80;;;6.10;;
4214;SDS011;2121;48.062;7.850;2022-10-31T06:41:17;12.37;;;6.50;;
4214;SDS011;2121;48.062;7.850;2022-10-31T06:43:45;9.67;;;5.70;;
4214;SDS011;2121;48.062;7.850;2022-10-31T06:46:12;5.23;;;4.50;;
4214;SDS011;2121;48.062;7.850;2022-10-31T06:48:38;12.77;;;5.43;;
4214;SDS011;2121;48.062;7.850;2022-10-31T06:51:06;8.20;;;4.60;;
4214;SDS011;2121;48.062;7.850;2022-10-31T06:53:32;6.07;;;4.50;;
4214;SDS011;2121;48.062;7.850;2022-10-31T06:55:58;5.50;;;4.63;;
4214;SDS011;2121;48.062;7.850;2022-10-31T06:58:24;6.10;;;4.33;;
4214;SDS011;2121;48.062;7.850;2022-10-31T07:00:50;6.93;;;4.33;;
4214;SDS011;2121;48.062;7.850;2022-10-31T07:03:16;10.50;;;4.30;;
4214;SDS011;2121;48.062;7.850;2022-10-31T07:05:42;4.80;;;4.40;;
4214;SDS011;2121;48.062;7.850;2022-10-31T07:08:10;8.33;;;4.20;;
4214;SDS011;2121;48.062;7.850;2022-10-31T07:10:39;9.53;;;4.47;;
4214;SDS011;2121;48.062;7.850;2022-10-31T07:13:08;10.40;;;4.77;;
4214;SDS011;2121;48.062;7.850;2022-10-31T07:15:38;7.17;;;4.67;;
4214;SDS011;2121;48.062;7.850;2022-10-31T07:18:06;7.03;;;3.97;;
4214;SDS011;2121;48.062;7.850;2022-10-31T07:20:34;9.53;;;4.93;;
4214;SDS011;2121;48.062;7.850;2022-10-31T07:23:00;9.70;;;3.83;;
4214;SDS011;2121;48.062;7.850;2022-10-31T07:25:26;8.00;;;5.13;;
4214;SDS011;2121;48.062;7.850;2022-10-31T07:27:52;6.70;;;4.60;;
4214;SDS011;2121;48.062;7.850;2022-10-31T07:30:17;8.30;;;4.60;;
4214;SDS011;2121;48.062;7.850;2022-10-31T07:32:44;12.80;;;5.17;;
4214;SDS011;2121;48.062;7.850;2022-10-31T07:35:16;5.30;;;4.30;;
4214;SDS011;2121;48.062;7.850;2022-10-31T07:37:47;9.40;;;4.53;;
4214;SDS011;2121;48.062;7.850;2022-10-31T07:40:14;9.43;;;4.20;;
4214;SDS011;2121;48.062;7.850;2022-10-31T07:42:41;6.23;;;4.27;;
4214;SDS011;2121;48.062;7.850;2022-10-31T07:45:11;6.40;;;3.90;;
4214;SDS011;2121;48.062;7.850;2022-10-31T07:47:47;8.33;;;5.47;;
4214;SDS011;2121;48.062;7.850;2022-10-31T07:50:19;5.13;;;4.33;;
4214;SDS011;2121;48.062;7.850;2022-10-31T07:55:30;5.90;;;4.27;;
4214;SDS011;2121;48.062;7.850;2022-10-31T08:00:27;10.27;;;4.27;;
4214;SDS011;2121;48.062;7.850;2022-10-31T08:03:13;12.63;;;4.90;;
4214;SDS011;2121;48.062;7.850;2022-10-31T08:05:42;5.17;;;4.30;;
4214;SDS011;2121;48.062;7.850;2022-10-31T08:08:09;15.33;;;4.70;;
4214;SDS011;2121;48.062;7.850;2022-10-31T08:10:35;7.70;;;5.27;;
4214;SDS011;2121;48.062;7.850;2022-10-31T08:13:05;7.67;;;5.57;;
4214;SDS011;2121;48.062;7.850;2022-10-31T08:15:34;5.80;;;4.70;;
4214;SDS011;2121;48.062;7.850;2022-10-31T08:18:03;6.17;;;4.73;;
4214;SDS011;2121;48.062;7.850;2022-10-31T08:20:30;9.80;;;5.10;;
4214;SDS011;2121;48.062;7.850;2022-10-31T08:22:59;6.03;;;4.87;;
4214;SDS011;2121;48.062;7.850;2022-10-31T08:25:29;9.07;;;5.13;;
4214;SDS011;2121;48.062;7.850;2022-10-31T08:27:57;11.33;;;4.40;;
4214;SDS011;2121;48.062;7.850;2022-10-31T08:30:24;6.10;;;5.50;;
4214;SDS011;2121;48.062;7.850;2022-10-31T08:33:03;9.17;;;4.63;;
4214;SDS011;2121;48.062;7.850;2022-10-31T08:35:32;10.20;;;4.83;;
4214;SDS011;2121;48.062;7.850;2022-10-31T08:37:58;7.37;;;5.17;;
4214;SDS011;2121;48.062;7.850;2022-10-31T08:40:25;10.50;;;7.27;;
4214;SDS011;2121;48.062;7.850;2022-10-31T08:42:56;12.23;;;6.80;;
4214;SDS011;2121;48.062;7.850;2022-10-31T08:45:30;30.40;;;16.80;;
4214;SDS011;2121;48.062;7.850;2022-10-31T08:47:59;27.73;;;17.70;;
4214;SDS011;2121;48.062;7.850;2022-10-31T08:50:26;24.67;;;15.57;;
4214;SDS011;2121;48.062;7.850;2022-10-31T08:52:59;23.57;;;13.60;;
4214;SDS011;2121;48.062;7.850;2022-10-31T08:55:37;16.13;;;9.07;;
4214;SDS011;2121;48.062;7.850;2022-10-31T08:58:05;10.00;;;7.90;;
4214;SDS011;2121;48.062;7.850;2022-10-31T09:00:34;22.73;;;11.50;;
4214;SDS011;2121;48.062;7.850;2022-10-31T09:03:04;33.03;;;21.23;;
4214;SDS011;2121;48.062;7.850;2022-10-31T09:05:34;37.30;;;20.87;;
4214;SDS011;2121;48.062;7.850;2022-10-31T09:08:00;27.77;;;16.90;;
4214;SDS011;2121;48.062;7.850;2022-10-31T09:10:29;26.33;;;14.33;;
4214;SDS011;2121;48.062;7.850;2022-10-31T09:13:00;21.03;;;11.60;;
4214;SDS011;2121;48.062;7.850;2022-10-31T09:15:46;19.83;;;11.27;;
4214;SDS011;2121;48.062;7.850;2022-10-31T09:18:14;26.50;;;10.20;;
4214;SDS011;2121;48.062;7.850;2022-10-31T09:20:44;24.20;;;11.20;;
4214;SDS011;2121;48.062;7.850;2022-10-31T09:23:19;12.33;;;7.93;;
4214;SDS011;2121;48.062;7.850;2022-10-31T09:25:47;16.77;;;8.20;;
4214;SDS011;2121;48.062;7.850;2022-10-31T09:28:16;13.50;;;7.07;;
4214;SDS011;2121;48.062;7.850;2022-10-31T09:30:48;10.60;;;8.50;;
4214;SDS011;2121;48.062;7.850;2022-10-31T09:33:18;10.10;;;7.40;;
4214;SDS011;2121;48.062;7.850;2022-10-31T09:35:45;12.50;;;8.70;;
4214;SDS011;2121;48.062;7.850;2022-10-31T09:38:12;10.40;;;6.13;;
4214;SDS011;2121;48.062;7.850;2022-10-31T09:45:46;10.33;;;6.77;;
4214;SDS011;2121;48.062;7.850;2022-10-31T09:51:39;15.07;;;9.97;;
4214;SDS011;2121;48.062;7.850;2022-10-31T09:54:13;12.53;;;6.53;;
4214;SDS011;2121;48.062;7.850;2022-10-31T09:56:44;9.67;;;7.07;;
4214;SDS011;2121;48.062;7.850;2022-10-31T09:59:12;10.53;;;7.20;;
4214;SDS011;2121;48.062;7.850;2022-10-31T10:01:57;13.60;;;6.10;;
4214;SDS011;2121;48.062;7.850;2022-10-31T10:18:32;5.33;;;4.30;;
4214;SDS011;2121;48.062;7.850;2022-10-31T10:26:40;6.40;;;4.80;;
4214;SDS011;2121;48.062;7.850;2022-10-31T10:32:00;6.33;;;5.13;;
4214;SDS011;2121;48.062;7.850;2022-10-31T10:34:41;11.60;;;6.30;;
4214;SDS011;2121;48.062;7.850;2022-10-31T10:37:26;6.00;;;4.40;;
4214;SDS011;2121;48.062;7.850;2022-10-31T10:40:00;8.77;;;5.57;;
4214;SDS011;2121;48.062;7.850;2022-10-31T10:42:42;8.77;;;5.30;;
4214;SDS011;2121;48.062;7.850;2022-10-31T10:45:49;9.00;;;5.10;;
4214;SDS011;2121;48.062;7.850;2022-10-31T10:49:04;13.50;;;5.97;;
4214;SDS011;2121;48.062;7.850;2022-10-31T10:58:03;11.20;;;6.80;;
4214;SDS011;2121;48.062;7.850;2022-10-31T11:00:38;11.53;;;7.23;;
4214;SDS011;2121;48.062;7.850;2022-10-31T11:03:07;13.20;;;7.40;;
4214;SDS011;2121;48.062;7.850;2022-10-31T11:05:41;18.90;;;7.87;;
4214;SDS011;2121;48.062;7.850;2022-10-31T11:08:26;11.87;;;6.57;;
4214;SDS011;2121;48.062;7.850;2022-10-31T11:11:03;11.90;;;6.50;;
4214;SDS011;2121;48.062;7.850;2022-10-31T11:13:30;10.40;;;6.27;;
4214;SDS011;2121;48.062;7.850;2022-10-31T11:16:00;10.87;;;6.60;;
4214;SDS011;2121;48.062;7.850;2022-10-31T11:18:32;10.90;;;6.03;;
4214;SDS011;2121;48.062;7.850;2022-10-31T11:21:03;12.67;;;6.77;;
4214;SDS011;2121;48.062;7.850;2022-10-31T11:23:30;11.27;;;5.07;;
4214;SDS011;2121;48.062;7.850;2022-10-31T11:26:01;10.37;;;6.10;;
4214;SDS011;2121;48.062;7.850;2022-10-31T11:28:31;9.17;;;6.30;;
4214;SDS011;2121;48.062;7.850;2022-10-31T11:31:00;22.00;;;10.00;;
4214;SDS011;2121;48.062;7.850;2022-10-31T11:36:23;12.73;;;7.73;;
4214;SDS011;2121;48.062;7.850;2022-10-31T11:38:55;11.53;;;5.63;;
4214;SDS011;2121;48.062;7.850;2022-10-31T11:41:26;17.20;;;4.60;;
4214;SDS011;2121;48.062;7.850;2022-10-31T11:43:59;8.00;;;5.70;;
4214;SDS011;2121;48.062;7.850;2022-10-31T11:49:15;7.30;;;5.40;;
4214;SDS011;2121;48.062;7.850;2022-10-31T11:51:55;7.17;;;4.03;;
4214;SDS011;2121;48.062;7.850;2022-10-31T11:54:27;7.17;;;5.43;;
4214;SDS011;2121;48.062;7.850;2022-10-31T11:57:27;11.17;;;5.80;;
4214;SDS011;2121;48.062;7.850;2022-10-31T12:00:20;7.23;;;4.53;;
4214;SDS011;2121;48.062;7.850;2022-10-31T12:03:04;9.63;;;4.70;;
4214;SDS011;2121;48.062;7.850;2022-10-31T12:05:49;7.80;;;5.07;;
4214;SDS011;2121;48.062;7.850;2022-10-31T12:08:23;8.13;;;4.90;;
4214;SDS011;2121;48.062;7.850;2022-10-31T12:14:12;14.20;;;5.63;;
4214;SDS011;2121;48.062;7.850;2022-10-31T12:17:14;5.63;;;4.70;;
4214;SDS011;2121;48.062;7.850;2022-10-31T12:45:58;9.03;;;6.00;;
4214;SDS011;2121;48.062;7.850;2022-10-31T12:54:42;6.50;;;5.70;;
4214;SDS011;2121;48.062;7.850;2022-10-31T13:02:56;7.37;;;5.10;;
4214;SDS011;2121;48.062;7.850;2022-10-31T13:05:43;13.60;;;4.87;;
4214;SDS011;2121;48.062;7.850;2022-10-31T13:08:18;8.50;;;4.97;;
4214;SDS011;2121;48.062;7.850;2022-10-31T13:13:47;4.90;;;4.37;;
4214;SDS011;2121;48.062;7.850;2022-10-31T13:16:41;8.83;;;4.87;;
4214;SDS011;2121;48.062;7.850;2022-10-31T13:22:12;7.77;;;5.50;;
4214;SDS011;2121;48.062;7.850;2022-10-31T13:27:42;10.97;;;6.13;;
4214;SDS011;2121;48.062;7.850;2022-10-31T13:30:36;16.23;;;6.60;;
4214;SDS011;2121;48.062;7.850;2022-10-31T13:33:19;12.60;;;5.80;;
4214;SDS011;2121;48.062;7.850;2022-10-31T13:44:36;11.23;;;5.77;;
4214;SDS011;2121;48.062;7.850;2022-10-31T13:50:24;5.90;;;5.30;;
4214;SDS011;2121;48.062;7.850;2022-10-31T13:55:44;6.20;;;5.33;;
4214;SDS011;2121;48.062;7.850;2022-10-31T13:58:20;9.17;;;6.23;;
4214;SDS011;2121;48.062;7.850;2022-10-31T14:03:28;9.27;;;5.77;;
4214;SDS011;2121;48.062;7.850;2022-10-31T14:05:56;8.40;;;5.83;;
4214;SDS011;2121;48.062;7.850;2022-10-31T14:08:22;17.00;;;5.30;;
4214;SDS011;2121;48.062;7.850;2022-10-31T14:10:50;7.83;;;4.90;;
4214;SDS011;2121;48.062;7.850;2022-10-31T14:13:20;7.17;;;5.60;;
4214;SDS011;2121;48.062;7.850;2022-10-31T14:15:57;18.50;;;6.17;;
4214;SDS011;2121;48.062;7.850;2022-10-31T14:18:39;11.03;;;6.87;;
4214;SDS011;2121;48.062;7.850;2022-10-31T14:23:48;9.57;;;4.90;;
4214;SDS011;2121;48.062;7.850;2022-10-31T14:28:54;9.23;;;4.80;;
4214;SDS011;2121;48.062;7.850;2022-10-31T14:31:39;6.40;;;5.30;;
4214;SDS011;2121;48.062;7.850;2022-10-31T14:37:31;10.13;;;5.27;;
4214;SDS011;2121;48.062;7.850;2022-10-31T14:43:01;11.20;;;5.73;;
4214;SDS011;2121;48.062;7.850;2022-10-31T14:45:55;9.17;;;5.80;;
4214;SDS011;2121;48.062;7.850;2022-10-31T14:48:36;8.70;;;5.43;;
4214;SDS011;2121;48.062;7.850;2022-10-31T14:51:43;9.27;;;5.53;;
4214;SDS011;2121;48.062;7.850;2022-10-31T14:54:18;8.20;;;6.07;;
4214;SDS011;2121;48.062;7.850;2022-10-31T14:56:57;12.30;;;6.60;;
4214;SDS011;2121;48.062;7.850;2022-10-31T14:59:31;11.90;;;6.47;;
4214;SDS011;2121;48.062;7.850;2022-10-31T15:02:13;11.03;;;7.07;;
4214;SDS011;2121;48.062;7.850;2022-10-31T15:04:50;15.07;;;7.50;;
4214;SDS011;2121;48.062;7.850;2022-10-31T15:09:54;17.40;;;7.60;;
4214;SDS011;2121;48.062;7.850;2022-10-31T15:12:31;14.83;;;6.43;;
4214;SDS011;2121;48.062;7.850;2022-10-31T15:15:11;20.53;;;7.53;;
4214;SDS011;2121;48.062;7.850;2022-10-31T15:17:59;8.90;;;6.60;;
4214;SDS011;2121;48.062;7.850;2022-10-31T15:20:26;8.40;;;6.60;;
4214;SDS011;2121;48.062;7.850;2022-10-31T15:22:55;9.53;;;6.77;;
4214;SDS011;2121;48.062;7.850;2022-10-31T15:25:23;14.40;;;7.23;;
4214;SDS011;2121;48.062;7.850;2022-10-31T15:27:52;17.97;;;9.00;;
4214;SDS011;2121;48.062;7.850;2022-10-31T15:32:49;11.80;;;7.30;;
4214;SDS011;2121;48.062;7.850;2022-10-31T15:35:26;16.73;;;7.93;;
4214;SDS011;2121;48.062;7.850;2022-10-31T15:37:55;14.80;;;7.73;;
4214;SDS011;2121;48.062;7.850;2022-10-31T15:40:23;16.10;;;8.17;;
4214;SDS011;2121;48.062;7.850;2022-10-31T15:42:58;15.47;;;8.97;;
4214;SDS011;2121;48.062;7.850;2022-10-31T15:45:27;13.03;;;7.30;;
4214;SDS011;2121;48.062;7.850;2022-10-31T15:47:59;15.87;;;7.80;;
4214;SDS011;2121;48.062;7.850;2022-10-31T15:50:40;15.80;;;8.13;;
4214;SDS011;2121;48.062;7.850;2022-10-31T15:53:18;17.13;;;9.17;;
4214;SDS011;2121;48.062;7.850;2022-10-31T15:55:59;19.27;;;11.30;;
4214;SDS011;2121;48.062;7.850;2022-10-31T15:58:29;22.40;;;10.13;;
4214;SDS011;2121;48.062;7.850;2022-10-31T16:00:59;14.93;;;8.80;;
4214;SDS011;2121;48.062;7.850;2022-10-31T16:03:31;16.23;;;9.17;;
4214;SDS011;2121;48.062;7.850;2022-10-31T16:05:59;16.37;;;8.40;;
4214;SDS011;2121;48.062;7.850;2022-10-31T16:10:58;21.70;;;9.80;;
4214;SDS011;2121;48.062;7.850;2022-10-31T16:13:31;18.70;;;10.43;;
4214;SDS011;2121;48.062;7.850;2022-10-31T16:16:16;17.33;;;7.97;;
4214;SDS011;2121;48.062;7.850;2022-10-31T16:18:42;15.37;;;7.60;;
4214;SDS011;2121;48.062;7.850;2022-10-31T16:21:08;12.03;;;8.40;;
4214;SDS011;2121;48.062;7.850;2022-10-31T16:23:36;14.30;;;8.30;;
4214;SDS011;2121;48.062;7.850;2022-10-31T16:26:07;12.33;;;7.93;;
4214;SDS011;2121;48.062;7.850;2022-10-31T16:28:33;15.03;;;8.87;;
4214;SDS011;2121;48.062;7.850;2022-10-31T16:31:01;15.73;;;9.17;;
4214;SDS011;2121;48.062;7.850;2022-10-31T16:33:38;14.60;;;8.50;;
4214;SDS011;2121;48.062;7.850;2022-10-31T16:38:56;17.87;;;10.20;;
4214;SDS011;2121;48.062;7.850;2022-10-31T16:41:23;9.87;;;7.70;;
4214;SDS011;2121;48.062;7.850;2022-10-31T16:43:50;17.10;;;8.90;;
4214;SDS011;2121;48.062;7.850;2022-10-31T16:46:18;12.53;;;7.83;;
4214;SDS011;2121;48.062;7.850;2022-10-31T16:48:51;15.83;;;8.50;;
4214;SDS011;2121;48.062;7.850;2022-10-31T16:51:18;10.80;;;8.10;;
4214;SDS011;2121;48.062;7.850;2022-10-31T16:53:44;18.77;;;10.90;;
4214;SDS011;2121;48.062;7.850;2022-10-31T16:56:42;18.40;;;9.90;;
4214;SDS011;2121;48.062;7.850;2022-10-31T16:59:03;23.13;;;10.37;;
4214;SDS011;2121;48.062;7.850;2022-10-31T17:01:32;16.63;;;10.00;;
4214;SDS011;2121;48.062;7.850;2022-10-31T17:04:00;13.60;;;9.00;;
4214;SDS011;2121;48.062;7.850;2022-10-31T17:06:25;19.70;;;10.10;;
4214;SDS011;2121;48.062;7.850;2022-10-31T17:08:52;20.80;;;11.80;;
4214;SDS011;2121;48.062;7.850;2022-10-31T17:11:20;19.97;;;12.50;;
4214;SDS011;2121;48.062;7.850;2022-10-31T17:13:49;21.67;;;12.37;;
4214;SDS011;2121;48.062;7.850;2022-10-31T17:16:16;16.93;;;11.20;;
4214;SDS011;2121;48.062;7.850;2022-10-31T17:18:41;16.47;;;11.30;;
4214;SDS011;2121;48.062;7.850;2022-10-31T17:21:14;16.33;;;11.20;;
4214;SDS011;2121;48.062;7.850;2022-10-31T17:23:44;24.53;;;12.20;;
4214;SDS011;2121;48.062;7.850;2022-10-31T17:26:10;17.73;;;12.00;;
4214;SDS011;2121;48.062;7.850;2022-10-31T17:28:36;20.03;;;13.60;;
4214;SDS011;2121;48.062;7.850;2022-10-31T17:31:02;25.00;;;16.80;;
4214;SDS011;2121;48.062;7.850;2022-10-31T17:33:28;17.93;;;10.40;;
4214;SDS011;2121;48.062;7.850;2022-10-31T17:35:53;19.70;;;11.10;;
4214;SDS011;2121;48.062;7.850;2022-10-31T17:38:19;21.47;;;13.93;;
4214;SDS011;2121;48.062;7.850;2022-10-31T17:40:45;17.70;;;12.07;;
4214;SDS011;2121;48.062;7.850;2022-10-31T17:43:11;15.80;;;11.00;;
4214;SDS011;2121;48.062;7.850;2022-10-31T17:45:40;15.60;;;11.07;;
4214;SDS011;2121;48.062;7.850;2022-10-31T17:48:06;18.10;;;10.27;;
4214;SDS011;2121;48.062;7.850;2022-10-31T17:50:36;16.60;;;10.93;;
4214;SDS011;2121;48.062;7.850;2022-10-31T17:53:01;24.77;;;11.80;;
4214;SDS011;2121;48.062;7.850;2022-10-31T17:55:28;19.73;;;13.40;;
4214;SDS011;2121;48.062;7.850;2022-10-31T17:57:53;18.63;;;12.60;;
4214;SDS011;2121;48.062;7.850;2022-10-31T18:00:19;23.17;;;11.70;;
4214;SDS011;2121;48.062;7.850;2022-10-31T18:02:47;17.73;;;12.63;;
4214;SDS011;2121;48.062;7.850;2022-10-31T18:05:14;20.33;;;13.57;;
4214;SDS011;2121;48.062;7.850;2022-10-31T18:07:39;21.70;;;14.27;;
4214;SDS011;2121;48.062;7.850;2022-10-31T18:10:05;19.50;;;12.17;;
4214;SDS011;2121;48.062;7.850;2022-10-31T18:12:34;18.00;;;10.50;;
4214;SDS011;2121;48.062;7.850;2022-10-31T18:15:00;16.50;;;10.73;;
4214;SDS011;2121;48.062;7.850;2022-10-31T18:17:26;14.50;;;10.10;;
4214;SDS011;2121;48.062;7.850;2022-10-31T18:19:52;15.63;;;11.03;;
4214;SDS011;2121;48.062;7.850;2022-10-31T18:22:17;19.90;;;10.87;;
4214;SDS011;2121;48.062;7.850;2022-10-31T18:24:43;15.30;;;11.43;;
4214;SDS011;2121;48.062;7.850;2022-10-31T18:27:09;22.13;;;12.30;;